sensor_id;sensor_type;location;lat;lon;timestamp;P1;durP1;ratioP1;P2;durP2;ratioP2
29380;SDS011;16364;52.490;13.326;2023-06-22T00:02:23;9.50;;;8.80;;
29380;SDS011;16364;52.490;13.326;2023-06-22T00:04:48;9.30;;;8.60;;
29380;SDS011;16364;52.490;13.326;2023-06-22T00:07:13;9.80;;;9.00;;
29380;SDS011;16364;52.490;13.326;2023-06-22T00:09:39;8.13;;;7.53;;
29380;SDS011;16364;52.490;13.326;2023-06-22T00:12:04;7.80;;;7.30;;
29380;SDS011;16364;52.490;13.326;2023-06-22T00:14:29;8.77;;;8.17;;
29380;SDS011;16364;52.490;13.326;2023-06-22T00:16:55;8.57;;;7.97;;
29380;SDS011;16364;52.490;13.326;2023-06-22T00:19:22;9.20;;;8.60;;
29380;SDS011;16364;52.490;13.326;2023-06-22T00:21:48;8.20;;;7.60;;
29380;SDS011;16364;52.490;13.326;2023-06-22T00:24:17;8.10;;;7.50;;
29380;SDS011;16364;52.490;13.326;2023-06-22T00:26:43;8.50;;;7.90;;
29380;SDS011;16364;52.490;13.326;2023-06-22T00:29:08;9.20;;;8.50;;
29380;SDS011;16364;52.490;13.326;2023-06-22T00:31:33;9.60;;;8.70;;
29380;SDS011;16364;52.490;13.326;2023-06-22T00:33:58;8.60;;;7.80;;
29380;SDS011;16364;52.490;13.326;2023-06-22T00:36:24;8.70;;;7.90;;
29380;SDS011;16364;52.490;13.326;2023-06-22T00:38:49;9.30;;;8.50;;
29380;SDS011;16364;52.490;13.326;2023-06-22T00:41:16;10.43;;;9.13;;
29380;SDS011;16364;52.490;13.326;2023-06-22T00:43:41;9.80;;;9.00;;
29380;SDS011;16364;52.490;13.326;2023-06-22T00:46:07;10.33;;;9.43;;
29380;SDS011;16364;52.490;13.326;2023-06-22T00:48:32;9.70;;;8.90;;
29380;SDS011;16364;52.490;13.326;2023-06-22T00:50:58;8.20;;;7.60;;
29380;SDS011;16364;52.490;13.326;2023-06-22T00:53:23;8.53;;;7.83;;
29380;SDS011;16364;52.490;13.326;2023-06-22T00:55:49;9.43;;;8.53;;
29380;SDS011;16364;52.490;13.326;2023-06-22T00:58:17;8.77;;;8.10;;
29380;SDS011;16364;52.490;13.326;2023-06-22T01:00:46;8.40;;;7.57;;
29380;SDS011;16364;52.490;13.326;2023-06-22T01:03:11;9.70;;;8.87;;
29380;SDS011;16364;52.490;13.326;2023-06-22T01:05:37;9.80;;;8.57;;
29380;SDS011;16364;52.490;13.326;2023-06-22T01:10:41;8.47;;;7.87;;
29380;SDS011;16364;52.490;13.326;2023-06-22T01:13:13;9.50;;;8.70;;
29380;SDS011;16364;52.490;13.326;2023-06-22T01:15:43;9.43;;;8.63;;
29380;SDS011;16364;52.490;13.326;2023-06-22T01:18:11;9.70;;;9.00;;
29380;SDS011;16364;52.490;13.326;2023-06-22T01:20:38;9.33;;;8.63;;
29380;SDS011;16364;52.490;13.326;2023-06-22T01:23:26;9.40;;;8.60;;
29380;SDS011;16364;52.490;13.326;2023-06-22T01:28:43;10.00;;;9.20;;
29380;SDS011;16364;52.490;13.326;2023-06-22T01:31:10;9.90;;;9.00;;
29380;SDS011;16364;52.490;13.326;2023-06-22T01:33:37;9.67;;;8.87;;
29380;SDS011;16364;52.490;13.326;2023-06-22T01:36:02;10.83;;;9.73;;
29380;SDS011;16364;52.490;13.326;2023-06-22T01:38:28;10.30;;;9.40;;
29380;SDS011;16364;52.490;13.326;2023-06-22T01:40:54;9.53;;;8.83;;
29380;SDS011;16364;52.490;13.326;2023-06-22T01:43:20;9.90;;;9.10;;
29380;SDS011;16364;52.490;13.326;2023-06-22T01:45:48;9.17;;;8.47;;
29380;SDS011;16364;52.490;13.326;2023-06-22T01:48:13;9.40;;;8.70;;
29380;SDS011;16364;52.490;13.326;2023-06-22T01:50:38;8.77;;;8.07;;
29380;SDS011;16364;52.490;13.326;2023-06-22T01:53:03;9.10;;;8.50;;
29380;SDS011;16364;52.490;13.326;2023-06-22T01:55:31;9.30;;;8.60;;
29380;SDS011;16364;52.490;13.326;2023-06-22T01:57:56;8.83;;;8.23;;
29380;SDS011;16364;52.490;13.326;2023-06-22T02:00:22;9.87;;;9.13;;
29380;SDS011;16364;52.490;13.326;2023-06-22T02:05:16;10.30;;;9.43;;
29380;SDS011;16364;52.490;13.326;2023-06-22T02:07:44;9.73;;;8.90;;
29380;SDS011;16364;52.490;13.326;2023-06-22T02:10:11;9.87;;;9.13;;
29380;SDS011;16364;52.490;13.326;2023-06-22T02:12:38;10.30;;;9.50;;
29380;SDS011;16364;52.490;13.326;2023-06-22T02:15:04;10.47;;;9.77;;
29380;SDS011;16364;52.490;13.326;2023-06-22T02:17:30;10.23;;;9.53;;
29380;SDS011;16364;52.490;13.326;2023-06-22T02:19:58;9.13;;;8.40;;
29380;SDS011;16364;52.490;13.326;2023-06-22T02:22:23;10.27;;;9.47;;
29380;SDS011;16364;52.490;13.326;2023-06-22T02:24:49;9.97;;;9.17;;
29380;SDS011;16364;52.490;13.326;2023-06-22T02:27:14;10.40;;;9.60;;
29380;SDS011;16364;52.490;13.326;2023-06-22T02:29:39;10.50;;;9.60;;
29380;SDS011;16364;52.490;13.326;2023-06-22T02:32:04;10.07;;;9.27;;
29380;SDS011;16364;52.490;13.326;2023-06-22T02:34:30;11.80;;;10.73;;
29380;SDS011;16364;52.490;13.326;2023-06-22T02:36:55;12.67;;;11.47;;
29380;SDS011;16364;52.490;13.326;2023-06-22T02:39:21;13.47;;;12.20;;
29380;SDS011;16364;52.490;13.326;2023-06-22T02:41:47;14.27;;;12.87;;
29380;SDS011;16364;52.490;13.326;2023-06-22T02:44:12;12.27;;;11.10;;
29380;SDS011;16364;52.490;13.326;2023-06-22T02:46:38;11.73;;;10.73;;
29380;SDS011;16364;52.490;13.326;2023-06-22T02:49:03;14.10;;;12.90;;
29380;SDS011;16364;52.490;13.326;2023-06-22T02:51:28;12.80;;;11.60;;
29380;SDS011;16364;52.490;13.326;2023-06-22T02:53:54;12.63;;;11.53;;
29380;SDS011;16364;52.490;13.326;2023-06-22T02:56:22;14.00;;;12.60;;
29380;SDS011;16364;52.490;13.326;2023-06-22T02:58:50;12.73;;;11.50;;
29380;SDS011;16364;52.490;13.326;2023-06-22T03:01:15;13.00;;;12.00;;
29380;SDS011;16364;52.490;13.326;2023-06-22T03:03:40;13.73;;;12.43;;
29380;SDS011;16364;52.490;13.326;2023-06-22T03:06:06;13.47;;;12.20;;
29380;SDS011;16364;52.490;13.326;2023-06-22T03:08:31;11.80;;;10.70;;
29380;SDS011;16364;52.490;13.326;2023-06-22T03:10:58;10.97;;;9.97;;
29380;SDS011;16364;52.490;13.326;2023-06-22T03:13:24;11.87;;;10.67;;
29380;SDS011;16364;52.490;13.326;2023-06-22T03:15:49;10.40;;;9.60;;
29380;SDS011;16364;52.490;13.326;2023-06-22T03:18:14;10.33;;;9.53;;
29380;SDS011;16364;52.490;13.326;2023-06-22T03:20:40;12.10;;;10.33;;
29380;SDS011;16364;52.490;13.326;2023-06-22T03:23:06;11.50;;;10.60;;
29380;SDS011;16364;52.490;13.326;2023-06-22T03:25:31;11.50;;;10.53;;
29380;SDS011;16364;52.490;13.326;2023-06-22T03:27:56;10.73;;;9.70;;
29380;SDS011;16364;52.490;13.326;2023-06-22T03:30:21;11.97;;;10.97;;
29380;SDS011;16364;52.490;13.326;2023-06-22T03:32:46;12.03;;;11.00;;
29380;SDS011;16364;52.490;13.326;2023-06-22T03:35:12;11.77;;;10.83;;
29380;SDS011;16364;52.490;13.326;2023-06-22T03:37:40;9.23;;;8.63;;
29380;SDS011;16364;52.490;13.326;2023-06-22T03:40:05;10.60;;;9.70;;
29380;SDS011;16364;52.490;13.326;2023-06-22T03:42:31;9.63;;;8.90;;
29380;SDS011;16364;52.490;13.326;2023-06-22T03:44:56;10.37;;;9.57;;
29380;SDS011;16364;52.490;13.326;2023-06-22T03:47:22;10.40;;;9.50;;
29380;SDS011;16364;52.490;13.326;2023-06-22T03:49:47;10.07;;;9.17;;
29380;SDS011;16364;52.490;13.326;2023-06-22T03:52:12;11.43;;;10.20;;
29380;SDS011;16364;52.490;13.326;2023-06-22T03:54:37;9.80;;;9.00;;
29380;SDS011;16364;52.490;13.326;2023-06-22T03:57:03;8.90;;;8.10;;
29380;SDS011;16364;52.490;13.326;2023-06-22T03:59:28;9.70;;;8.90;;
29380;SDS011;16364;52.490;13.326;2023-06-22T04:01:53;8.97;;;8.00;;
29380;SDS011;16364;52.490;13.326;2023-06-22T04:04:19;7.90;;;7.10;;
29380;SDS011;16364;52.490;13.326;2023-06-22T04:06:44;8.03;;;7.13;;
29380;SDS011;16364;52.490;13.326;2023-06-22T04:09:10;7.90;;;7.10;;
29380;SDS011;16364;52.490;13.326;2023-06-22T04:11:35;8.07;;;7.47;;
29380;SDS011;16364;52.490;13.326;2023-06-22T04:14:00;8.90;;;8.20;;
29380;SDS011;16364;52.490;13.326;2023-06-22T04:16:25;9.47;;;8.50;;
29380;SDS011;16364;52.490;13.326;2023-06-22T04:18:51;7.67;;;7.17;;
29380;SDS011;16364;52.490;13.326;2023-06-22T04:21:16;7.40;;;6.90;;
29380;SDS011;16364;52.490;13.326;2023-06-22T04:23:41;7.40;;;6.70;;
29380;SDS011;16364;52.490;13.326;2023-06-22T04:26:08;7.23;;;6.60;;
29380;SDS011;16364;52.490;13.326;2023-06-22T04:28:33;6.80;;;6.20;;
29380;SDS011;16364;52.490;13.326;2023-06-22T04:31:01;9.00;;;7.93;;
29380;SDS011;16364;52.490;13.326;2023-06-22T04:33:27;7.13;;;6.63;;
29380;SDS011;16364;52.490;13.326;2023-06-22T04:35:54;7.53;;;6.90;;
29380;SDS011;16364;52.490;13.326;2023-06-22T04:38:19;7.80;;;7.13;;
29380;SDS011;16364;52.490;13.326;2023-06-22T04:40:46;7.90;;;7.30;;
29380;SDS011;16364;52.490;13.326;2023-06-22T04:43:11;9.60;;;8.80;;
29380;SDS011;16364;52.490;13.326;2023-06-22T04:45:37;7.63;;;7.03;;
29380;SDS011;16364;52.490;13.326;2023-06-22T04:48:03;7.73;;;6.93;;
29380;SDS011;16364;52.490;13.326;2023-06-22T04:50:28;7.27;;;6.57;;
29380;SDS011;16364;52.490;13.326;2023-06-22T04:52:54;6.60;;;6.00;;
29380;SDS011;16364;52.490;13.326;2023-06-22T04:55:19;6.10;;;5.60;;
29380;SDS011;16364;52.490;13.326;2023-06-22T04:57:45;7.67;;;7.00;;
29380;SDS011;16364;52.490;13.326;2023-06-22T05:00:13;8.00;;;7.30;;
29380;SDS011;16364;52.490;13.326;2023-06-22T05:02:42;8.43;;;7.70;;
29380;SDS011;16364;52.490;13.326;2023-06-22T05:05:07;6.80;;;6.30;;
29380;SDS011;16364;52.490;13.326;2023-06-22T05:07:36;9.53;;;8.60;;
29380;SDS011;16364;52.490;13.326;2023-06-22T05:10:05;7.90;;;7.30;;
29380;SDS011;16364;52.490;13.326;2023-06-22T05:12:30;7.60;;;7.00;;
29380;SDS011;16364;52.490;13.326;2023-06-22T05:14:56;7.00;;;6.43;;
29380;SDS011;16364;52.490;13.326;2023-06-22T05:17:21;6.23;;;5.70;;
29380;SDS011;16364;52.490;13.326;2023-06-22T05:19:46;6.33;;;5.73;;
29380;SDS011;16364;52.490;13.326;2023-06-22T05:22:15;9.17;;;6.50;;
29380;SDS011;16364;52.490;13.326;2023-06-22T05:24:40;6.80;;;6.20;;
29380;SDS011;16364;52.490;13.326;2023-06-22T05:27:05;7.00;;;6.50;;
29380;SDS011;16364;52.490;13.326;2023-06-22T05:29:31;6.27;;;5.20;;
29380;SDS011;16364;52.490;13.326;2023-06-22T05:31:56;10.30;;;5.03;;
29380;SDS011;16364;52.490;13.326;2023-06-22T05:34:21;6.93;;;4.73;;
29380;SDS011;16364;52.490;13.326;2023-06-22T05:36:46;11.77;;;4.87;;
29380;SDS011;16364;52.490;13.326;2023-06-22T05:39:12;28.73;;;8.40;;
29380;SDS011;16364;52.490;13.326;2023-06-22T05:41:41;36.43;;;9.67;;
29380;SDS011;16364;52.490;13.326;2023-06-22T05:44:06;21.93;;;9.20;;
29380;SDS011;16364;52.490;13.326;2023-06-22T05:46:32;16.13;;;10.80;;
29380;SDS011;16364;52.490;13.326;2023-06-22T05:48:57;8.50;;;7.67;;
29380;SDS011;16364;52.490;13.326;2023-06-22T05:51:22;6.00;;;5.60;;
29380;SDS011;16364;52.490;13.326;2023-06-22T05:53:47;6.97;;;6.37;;
29380;SDS011;16364;52.490;13.326;2023-06-22T05:56:15;6.60;;;6.13;;
29380;SDS011;16364;52.490;13.326;2023-06-22T05:58:40;7.90;;;7.13;;
29380;SDS011;16364;52.490;13.326;2023-06-22T06:01:05;18.67;;;10.53;;
29380;SDS011;16364;52.490;13.326;2023-06-22T06:03:30;15.47;;;8.67;;
29380;SDS011;16364;52.490;13.326;2023-06-22T06:05:56;17.87;;;7.33;;
29380;SDS011;16364;52.490;13.326;2023-06-22T06:08:21;8.73;;;5.40;;
29380;SDS011;16364;52.490;13.326;2023-06-22T06:10:46;5.60;;;5.20;;
29380;SDS011;16364;52.490;13.326;2023-06-22T06:13:12;7.20;;;6.00;;
29380;SDS011;16364;52.490;13.326;2023-06-22T06:15:37;6.30;;;5.10;;
29380;SDS011;16364;52.490;13.326;2023-06-22T06:18:03;12.50;;;5.60;;
29380;SDS011;16364;52.490;13.326;2023-06-22T06:20:30;20.93;;;6.90;;
29380;SDS011;16364;52.490;13.326;2023-06-22T06:22:55;11.10;;;5.87;;
29380;SDS011;16364;52.490;13.326;2023-06-22T06:25:21;5.13;;;4.73;;
29380;SDS011;16364;52.490;13.326;2023-06-22T06:27:47;5.80;;;4.83;;
29380;SDS011;16364;52.490;13.326;2023-06-22T06:30:13;5.13;;;4.73;;
29380;SDS011;16364;52.490;13.326;2023-06-22T06:32:39;5.10;;;4.63;;
29380;SDS011;16364;52.490;13.326;2023-06-22T06:35:08;5.70;;;5.23;;
29380;SDS011;16364;52.490;13.326;2023-06-22T06:37:37;5.20;;;4.80;;
29380;SDS011;16364;52.490;13.326;2023-06-22T06:40:06;14.43;;;6.80;;
29380;SDS011;16364;52.490;13.326;2023-06-22T06:42:36;9.03;;;4.63;;
29380;SDS011;16364;52.490;13.326;2023-06-22T06:45:03;3.80;;;3.30;;
29380;SDS011;16364;52.490;13.326;2023-06-22T06:47:28;4.83;;;4.13;;
29380;SDS011;16364;52.490;13.326;2023-06-22T06:49:53;9.57;;;4.70;;
29380;SDS011;16364;52.490;13.326;2023-06-22T06:52:18;7.87;;;5.20;;
29380;SDS011;16364;52.490;13.326;2023-06-22T06:54:45;3.90;;;3.60;;
29380;SDS011;16364;52.490;13.326;2023-06-22T06:57:10;4.33;;;3.80;;
29380;SDS011;16364;52.490;13.326;2023-06-22T06:59:35;4.50;;;4.20;;
29380;SDS011;16364;52.490;13.326;2023-06-22T07:02:01;4.30;;;3.67;;
29380;SDS011;16364;52.490;13.326;2023-06-22T07:04:26;6.53;;;4.10;;
29380;SDS011;16364;52.490;13.326;2023-06-22T07:06:52;7.00;;;3.33;;
29380;SDS011;16364;52.490;13.326;2023-06-22T07:09:17;6.13;;;3.27;;
29380;SDS011;16364;52.490;13.326;2023-06-22T07:11:43;4.70;;;4.40;;
29380;SDS011;16364;52.490;13.326;2023-06-22T07:14:08;3.93;;;3.63;;
29380;SDS011;16364;52.490;13.326;2023-06-22T07:16:34;4.90;;;4.07;;
29380;SDS011;16364;52.490;13.326;2023-06-22T07:18:59;4.40;;;3.70;;
29380;SDS011;16364;52.490;13.326;2023-06-22T07:21:25;3.50;;;3.20;;
29380;SDS011;16364;52.490;13.326;2023-06-22T07:23:50;4.17;;;3.40;;
29380;SDS011;16364;52.490;13.326;2023-06-22T07:26:15;5.47;;;3.13;;
29380;SDS011;16364;52.490;13.326;2023-06-22T07:28:41;4.07;;;3.20;;
29380;SDS011;16364;52.490;13.326;2023-06-22T07:31:07;4.37;;;3.23;;
29380;SDS011;16364;52.490;13.326;2023-06-22T07:33:32;12.60;;;4.50;;
29380;SDS011;16364;52.490;13.326;2023-06-22T07:35:57;20.40;;;5.10;;
29380;SDS011;16364;52.490;13.326;2023-06-22T07:38:23;20.23;;;4.27;;
29380;SDS011;16364;52.490;13.326;2023-06-22T07:40:48;6.00;;;3.43;;
29380;SDS011;16364;52.490;13.326;2023-06-22T07:43:13;2.90;;;2.70;;
29380;SDS011;16364;52.490;13.326;2023-06-22T07:45:39;2.17;;;1.97;;
29380;SDS011;16364;52.490;13.326;2023-06-22T07:48:06;2.60;;;2.40;;
29380;SDS011;16364;52.490;13.326;2023-06-22T07:50:31;2.27;;;2.07;;
29380;SDS011;16364;52.490;13.326;2023-06-22T07:52:57;5.10;;;2.53;;
29380;SDS011;16364;52.490;13.326;2023-06-22T07:55:22;19.30;;;4.07;;
29380;SDS011;16364;52.490;13.326;2023-06-22T07:57:48;6.53;;;4.27;;
29380;SDS011;16364;52.490;13.326;2023-06-22T08:00:14;3.30;;;2.73;;
29380;SDS011;16364;52.490;13.326;2023-06-22T08:02:44;2.60;;;2.40;;
29380;SDS011;16364;52.490;13.326;2023-06-22T08:05:10;2.50;;;2.30;;
29380;SDS011;16364;52.490;13.326;2023-06-22T08:07:36;3.40;;;2.77;;
29380;SDS011;16364;52.490;13.326;2023-06-22T08:10:02;4.33;;;2.83;;
29380;SDS011;16364;52.490;13.326;2023-06-22T08:12:28;4.73;;;2.90;;
29380;SDS011;16364;52.490;13.326;2023-06-22T08:14:53;3.83;;;2.90;;
29380;SDS011;16364;52.490;13.326;2023-06-22T08:17:18;3.27;;;3.00;;
29380;SDS011;16364;52.490;13.326;2023-06-22T08:19:43;3.23;;;2.93;;
29380;SDS011;16364;52.490;13.326;2023-06-22T08:22:09;3.10;;;2.53;;
29380;SDS011;16364;52.490;13.326;2023-06-22T08:24:34;2.40;;;2.17;;
29380;SDS011;16364;52.490;13.326;2023-06-22T08:26:59;2.53;;;2.33;;
29380;SDS011;16364;52.490;13.326;2023-06-22T08:29:24;12.10;;;3.80;;
29380;SDS011;16364;52.490;13.326;2023-06-22T08:31:50;6.20;;;2.97;;
29380;SDS011;16364;52.490;13.326;2023-06-22T08:34:15;5.30;;;3.77;;
29380;SDS011;16364;52.490;13.326;2023-06-22T08:36:40;23.30;;;4.97;;
29380;SDS011;16364;52.490;13.326;2023-06-22T08:39:08;9.23;;;4.03;;
29380;SDS011;16364;52.490;13.326;2023-06-22T08:41:33;6.50;;;4.40;;
29380;SDS011;16364;52.490;13.326;2023-06-22T08:43:59;11.60;;;3.90;;
29380;SDS011;16364;52.490;13.326;2023-06-22T08:46:24;5.50;;;4.60;;
29380;SDS011;16364;52.490;13.326;2023-06-22T08:48:55;4.10;;;2.57;;
29380;SDS011;16364;52.490;13.326;2023-06-22T08:51:20;3.30;;;3.00;;
29380;SDS011;16364;52.490;13.326;2023-06-22T08:53:46;5.83;;;2.73;;
29380;SDS011;16364;52.490;13.326;2023-06-22T08:56:11;3.83;;;3.53;;
29380;SDS011;16364;52.490;13.326;2023-06-22T08:58:36;2.60;;;2.40;;
29380;SDS011;16364;52.490;13.326;2023-06-22T09:01:01;3.37;;;2.50;;
29380;SDS011;16364;52.490;13.326;2023-06-22T09:03:27;6.70;;;2.70;;
29380;SDS011;16364;52.490;13.326;2023-06-22T09:05:52;4.07;;;2.80;;
29380;SDS011;16364;52.490;13.326;2023-06-22T09:08:18;2.83;;;2.63;;
29380;SDS011;16364;52.490;13.326;2023-06-22T09:10:43;3.53;;;3.20;;
29380;SDS011;16364;52.490;13.326;2023-06-22T09:13:08;2.50;;;2.30;;
29380;SDS011;16364;52.490;13.326;2023-06-22T09:15:33;3.63;;;2.87;;
29380;SDS011;16364;52.490;13.326;2023-06-22T09:17:59;12.40;;;3.97;;
29380;SDS011;16364;52.490;13.326;2023-06-22T09:20:25;4.90;;;2.23;;
29380;SDS011;16364;52.490;13.326;2023-06-22T09:22:50;2.63;;;2.43;;
29380;SDS011;16364;52.490;13.326;2023-06-22T09:25:15;4.33;;;2.60;;
29380;SDS011;16364;52.490;13.326;2023-06-22T09:27:41;3.83;;;2.93;;
29380;SDS011;16364;52.490;13.326;2023-06-22T09:30:06;5.20;;;3.30;;
29380;SDS011;16364;52.490;13.326;2023-06-22T09:32:31;2.60;;;2.40;;
29380;SDS011;16364;52.490;13.326;2023-06-22T09:34:57;2.27;;;2.13;;
29380;SDS011;16364;52.490;13.326;2023-06-22T09:37:22;3.07;;;2.87;;
29380;SDS011;16364;52.490;13.326;2023-06-22T09:39:47;3.67;;;2.40;;
29380;SDS011;16364;52.490;13.326;2023-06-22T09:42:12;3.20;;;2.67;;
29380;SDS011;16364;52.490;13.326;2023-06-22T09:44:38;3.10;;;2.90;;
29380;SDS011;16364;52.490;13.326;2023-06-22T09:47:04;3.67;;;3.37;;
29380;SDS011;16364;52.490;13.326;2023-06-22T09:49:29;3.70;;;2.50;;
29380;SDS011;16364;52.490;13.326;2023-06-22T09:51:54;2.80;;;2.60;;
29380;SDS011;16364;52.490;13.326;2023-06-22T09:54:19;2.60;;;2.40;;
29380;SDS011;16364;52.490;13.326;2023-06-22T09:56:45;3.13;;;2.83;;
29380;SDS011;16364;52.490;13.326;2023-06-22T09:59:10;3.47;;;2.90;;
29380;SDS011;16364;52.490;13.326;2023-06-22T10:01:35;5.03;;;2.83;;
29380;SDS011;16364;52.490;13.326;2023-06-22T10:04:01;4.43;;;3.17;;
29380;SDS011;16364;52.490;13.326;2023-06-22T10:06:27;3.93;;;3.53;;
29380;SDS011;16364;52.490;13.326;2023-06-22T10:08:52;4.37;;;3.77;;
29380;SDS011;16364;52.490;13.326;2023-06-22T10:11:18;3.30;;;3.10;;
29380;SDS011;16364;52.490;13.326;2023-06-22T10:13:43;3.93;;;3.50;;
29380;SDS011;16364;52.490;13.326;2023-06-22T10:16:09;3.63;;;3.43;;
29380;SDS011;16364;52.490;13.326;2023-06-22T10:18:34;4.90;;;3.87;;
29380;SDS011;16364;52.490;13.326;2023-06-22T10:20:59;3.20;;;3.00;;
29380;SDS011;16364;52.490;13.326;2023-06-22T10:23:24;4.10;;;3.43;;
29380;SDS011;16364;52.490;13.326;2023-06-22T10:25:50;5.23;;;3.70;;
29380;SDS011;16364;52.490;13.326;2023-06-22T10:28:15;3.10;;;2.80;;
29380;SDS011;16364;52.490;13.326;2023-06-22T10:30:41;3.07;;;2.87;;
29380;SDS011;16364;52.490;13.326;2023-06-22T10:33:06;2.90;;;2.67;;
29380;SDS011;16364;52.490;13.326;2023-06-22T10:35:32;4.00;;;3.70;;
29380;SDS011;16364;52.490;13.326;2023-06-22T10:37:57;4.53;;;4.13;;
29380;SDS011;16364;52.490;13.326;2023-06-22T10:40:22;3.80;;;3.50;;
29380;SDS011;16364;52.490;13.326;2023-06-22T10:42:47;4.77;;;4.47;;
29380;SDS011;16364;52.490;13.326;2023-06-22T10:45:15;3.90;;;3.60;;
29380;SDS011;16364;52.490;13.326;2023-06-22T10:47:40;3.90;;;3.60;;
29380;SDS011;16364;52.490;13.326;2023-06-22T10:50:07;5.07;;;3.87;;
29380;SDS011;16364;52.490;13.326;2023-06-22T10:52:32;4.00;;;3.60;;
29380;SDS011;16364;52.490;13.326;2023-06-22T10:54:58;3.43;;;3.17;;
29380;SDS011;16364;52.490;13.326;2023-06-22T10:57:23;3.47;;;3.17;;
29380;SDS011;16364;52.490;13.326;2023-06-22T10:59:48;3.33;;;3.03;;
29380;SDS011;16364;52.490;13.326;2023-06-22T11:02:13;5.83;;;5.33;;
29380;SDS011;16364;52.490;13.326;2023-06-22T11:04:39;6.60;;;4.13;;
29380;SDS011;16364;52.490;13.326;2023-06-22T11:07:04;15.63;;;4.90;;
29380;SDS011;16364;52.490;13.326;2023-06-22T11:09:29;5.70;;;3.30;;
29380;SDS011;16364;52.490;13.326;2023-06-22T11:11:55;8.03;;;3.30;;
29380;SDS011;16364;52.490;13.326;2023-06-22T11:14:21;3.50;;;3.20;;
29380;SDS011;16364;52.490;13.326;2023-06-22T11:16:46;4.73;;;3.37;;
29380;SDS011;16364;52.490;13.326;2023-06-22T11:19:12;6.30;;;3.23;;
29380;SDS011;16364;52.490;13.326;2023-06-22T11:21:37;13.50;;;4.47;;
29380;SDS011;16364;52.490;13.326;2023-06-22T11:24:03;4.57;;;3.73;;
29380;SDS011;16364;52.490;13.326;2023-06-22T11:26:28;3.80;;;3.50;;
29380;SDS011;16364;52.490;13.326;2023-06-22T11:28:53;3.03;;;2.73;;
29380;SDS011;16364;52.490;13.326;2023-06-22T11:31:19;3.47;;;3.17;;
29380;SDS011;16364;52.490;13.326;2023-06-22T11:33:44;32.27;;;6.80;;
29380;SDS011;16364;52.490;13.326;2023-06-22T11:36:13;23.77;;;6.10;;
29380;SDS011;16364;52.490;13.326;2023-06-22T11:38:39;7.10;;;4.60;;
29380;SDS011;16364;52.490;13.326;2023-06-22T11:41:08;12.73;;;4.20;;
29380;SDS011;16364;52.490;13.326;2023-06-22T11:43:33;15.53;;;5.17;;
29380;SDS011;16364;52.490;13.326;2023-06-22T11:45:58;3.93;;;2.83;;
29380;SDS011;16364;52.490;13.326;2023-06-22T11:48:24;5.60;;;2.80;;
29380;SDS011;16364;52.490;13.326;2023-06-22T11:50:49;3.87;;;3.40;;
29380;SDS011;16364;52.490;13.326;2023-06-22T11:53:15;9.97;;;7.20;;
29380;SDS011;16364;52.490;13.326;2023-06-22T11:55:42;7.17;;;5.93;;
29380;SDS011;16364;52.490;13.326;2023-06-22T11:58:07;8.43;;;5.53;;
29380;SDS011;16364;52.490;13.326;2023-06-22T12:00:33;17.17;;;4.30;;
29380;SDS011;16364;52.490;13.326;2023-06-22T12:02:58;34.20;;;24.13;;
29380;SDS011;16364;52.490;13.326;2023-06-22T12:05:23;22.30;;;17.57;;
29380;SDS011;16364;52.490;13.326;2023-06-22T12:07:49;6.17;;;5.63;;
29380;SDS011;16364;52.490;13.326;2023-06-22T12:10:15;5.83;;;4.50;;
29380;SDS011;16364;52.490;13.326;2023-06-22T12:12:41;5.67;;;4.10;;
29380;SDS011;16364;52.490;13.326;2023-06-22T12:15:06;9.30;;;6.07;;
29380;SDS011;16364;52.490;13.326;2023-06-22T12:17:32;3.27;;;2.97;;
29380;SDS011;16364;52.490;13.326;2023-06-22T12:19:58;4.00;;;3.40;;
29380;SDS011;16364;52.490;13.326;2023-06-22T12:22:23;5.17;;;3.97;;
29380;SDS011;16364;52.490;13.326;2023-06-22T12:24:48;5.47;;;3.20;;
29380;SDS011;16364;52.490;13.326;2023-06-22T12:27:14;6.97;;;3.77;;
29380;SDS011;16364;52.490;13.326;2023-06-22T12:29:41;3.60;;;3.30;;
29380;SDS011;16364;52.490;13.326;2023-06-22T12:32:07;12.13;;;3.73;;
29380;SDS011;16364;52.490;13.326;2023-06-22T12:34:32;4.03;;;3.57;;
29380;SDS011;16364;52.490;13.326;2023-06-22T12:36:57;3.17;;;2.80;;
29380;SDS011;16364;52.490;13.326;2023-06-22T12:39:22;10.77;;;4.23;;
29380;SDS011;16364;52.490;13.326;2023-06-22T12:41:48;18.43;;;4.33;;
29380;SDS011;16364;52.490;13.326;2023-06-22T12:44:13;4.10;;;3.70;;
29380;SDS011;16364;52.490;13.326;2023-06-22T12:46:38;3.80;;;3.40;;
29380;SDS011;16364;52.490;13.326;2023-06-22T12:49:04;3.77;;;3.43;;
29380;SDS011;16364;52.490;13.326;2023-06-22T12:51:29;2.80;;;2.60;;
29380;SDS011;16364;52.490;13.326;2023-06-22T12:53:54;4.80;;;3.67;;
29380;SDS011;16364;52.490;13.326;2023-06-22T12:56:20;4.83;;;3.47;;
29380;SDS011;16364;52.490;13.326;2023-06-22T12:58:45;5.60;;;4.37;;
29380;SDS011;16364;52.490;13.326;2023-06-22T13:01:10;3.57;;;2.80;;
29380;SDS011;16364;52.490;13.326;2023-06-22T13:03:35;3.30;;;3.10;;
29380;SDS011;16364;52.490;13.326;2023-06-22T13:06:01;4.07;;;3.10;;
29380;SDS011;16364;52.490;13.326;2023-06-22T13:08:27;3.90;;;3.67;;
29380;SDS011;16364;52.490;13.326;2023-06-22T13:10:52;5.03;;;4.63;;
29380;SDS011;16364;52.490;13.326;2023-06-22T13:13:17;4.10;;;3.47;;
29380;SDS011;16364;52.490;13.326;2023-06-22T13:15:43;3.50;;;3.30;;
29380;SDS011;16364;52.490;13.326;2023-06-22T13:18:08;4.10;;;3.80;;
29380;SDS011;16364;52.490;13.326;2023-06-22T13:20:33;5.30;;;3.77;;
29380;SDS011;16364;52.490;13.326;2023-06-22T13:22:59;4.70;;;3.53;;
29380;SDS011;16364;52.490;13.326;2023-06-22T13:25:24;4.03;;;3.73;;
29380;SDS011;16364;52.490;13.326;2023-06-22T13:27:51;6.90;;;4.40;;
29380;SDS011;16364;52.490;13.326;2023-06-22T13:30:17;4.70;;;4.30;;
29380;SDS011;16364;52.490;13.326;2023-06-22T13:32:42;5.13;;;3.90;;
29380;SDS011;16364;52.490;13.326;2023-06-22T13:35:08;4.90;;;4.60;;
29380;SDS011;16364;52.490;13.326;2023-06-22T13:37:33;4.40;;;4.10;;
29380;SDS011;16364;52.490;13.326;2023-06-22T13:39:59;3.13;;;2.93;;
29380;SDS011;16364;52.490;13.326;2023-06-22T13:42:24;51.50;;;7.83;;
29380;SDS011;16364;52.490;13.326;2023-06-22T13:44:50;7.23;;;4.40;;
29380;SDS011;16364;52.490;13.326;2023-06-22T13:47:15;3.67;;;3.37;;
29380;SDS011;16364;52.490;13.326;2023-06-22T13:49:40;3.70;;;3.40;;
29380;SDS011;16364;52.490;13.326;2023-06-22T13:52:06;4.23;;;4.03;;
29380;SDS011;16364;52.490;13.326;2023-06-22T13:54:35;3.33;;;3.03;;
29380;SDS011;16364;52.490;13.326;2023-06-22T13:57:00;3.73;;;3.43;;
29380;SDS011;16364;52.490;13.326;2023-06-22T13:59:25;3.47;;;3.20;;
29380;SDS011;16364;52.490;13.326;2023-06-22T14:01:52;19.03;;;5.90;;
29380;SDS011;16364;52.490;13.326;2023-06-22T14:04:18;16.97;;;6.00;;
29380;SDS011;16364;52.490;13.326;2023-06-22T14:06:43;4.43;;;4.13;;
29380;SDS011;16364;52.490;13.326;2023-06-22T14:09:08;4.30;;;3.90;;
29380;SDS011;16364;52.490;13.326;2023-06-22T14:11:34;4.40;;;3.97;;
29380;SDS011;16364;52.490;13.326;2023-06-22T14:13:59;4.00;;;3.60;;
29380;SDS011;16364;52.490;13.326;2023-06-22T14:16:24;4.13;;;3.73;;
29380;SDS011;16364;52.490;13.326;2023-06-22T14:18:50;3.70;;;3.33;;
29380;SDS011;16364;52.490;13.326;2023-06-22T14:21:15;4.57;;;3.87;;
29380;SDS011;16364;52.490;13.326;2023-06-22T14:23:40;3.47;;;3.23;;
29380;SDS011;16364;52.490;13.326;2023-06-22T14:26:05;4.00;;;3.70;;
29380;SDS011;16364;52.490;13.326;2023-06-22T14:28:31;4.60;;;3.17;;
29380;SDS011;16364;52.490;13.326;2023-06-22T14:30:56;5.50;;;3.50;;